sensor_id;sensor_type;location;lat;lon;timestamp;temperature;humidity
2751;DHT22;1383;48.362;10.908;2023-02-18T00:01:01;11.90;69.60
2751;DHT22;1383;48.362;10.908;2023-02-18T00:03:29;11.90;69.40
2751;DHT22;1383;48.362;10.908;2023-02-18T00:05:56;11.90;68.80
2751;DHT22;1383;48.362;10.908;2023-02-18T00:08:22;11.90;68.70
2751;DHT22;1383;48.362;10.908;2023-02-18T00:10:49;11.90;68.70
2751;DHT22;1383;48.362;10.908;2023-02-18T00:13:16;12.00;69.20
2751;DHT22;1383;48.362;10.908;2023-02-18T00:15:43;12.00;68.20
2751;DHT22;1383;48.362;10.908;2023-02-18T00:18:10;12.00;67.70
2751;DHT22;1383;48.362;10.908;2023-02-18T00:20:38;12.00;67.60
2751;DHT22;1383;48.362;10.908;2023-02-18T00:23:05;12.00;67.40
2751;DHT22;1383;48.362;10.908;2023-02-18T00:25:32;12.00;67.10
2751;DHT22;1383;48.362;10.908;2023-02-18T00:27:59;12.00;67.10
2751;DHT22;1383;48.362;10.908;2023-02-18T00:30:25;12.10;66.70
2751;DHT22;1383;48.362;10.908;2023-02-18T00:32:54;12.10;66.70
2751;DHT22;1383;48.362;10.908;2023-02-18T00:35:21;12.10;66.10
2751;DHT22;1383;48.362;10.908;2023-02-18T00:37:51;12.10;66.00
2751;DHT22;1383;48.362;10.908;2023-02-18T00:40:19;12.10;65.70
2751;DHT22;1383;48.362;10.908;2023-02-18T00:42:45;12.10;65.90
2751;DHT22;1383;48.362;10.908;2023-02-18T00:45:12;12.20;65.70
2751;DHT22;1383;48.362;10.908;2023-02-18T00:47:39;12.20;65.20
2751;DHT22;1383;48.362;10.908;2023-02-18T00:50:07;12.10;65.20
2751;DHT22;1383;48.362;10.908;2023-02-18T00:52:35;12.20;65.00
2751;DHT22;1383;48.362;10.908;2023-02-18T00:55:02;12.10;64.80
2751;DHT22;1383;48.362;10.908;2023-02-18T00:57:29;12.20;64.80
2751;DHT22;1383;48.362;10.908;2023-02-18T00:59:55;12.20;64.70
2751;DHT22;1383;48.362;10.908;2023-02-18T01:02:22;12.10;64.80
2751;DHT22;1383;48.362;10.908;2023-02-18T01:04:49;12.10;65.30
2751;DHT22;1383;48.362;10.908;2023-02-18T01:07:15;12.20;65.00
2751;DHT22;1383;48.362;10.908;2023-02-18T01:09:42;12.20;65.00
2751;DHT22;1383;48.362;10.908;2023-02-18T01:12:09;12.10;65.00
2751;DHT22;1383;48.362;10.908;2023-02-18T01:14:36;12.20;65.30
2751;DHT22;1383;48.362;10.908;2023-02-18T01:17:03;12.20;65.30
2751;DHT22;1383;48.362;10.908;2023-02-18T01:19:30;12.10;65.40
2751;DHT22;1383;48.362;10.908;2023-02-18T01:21:57;12.10;65.80
2751;DHT22;1383;48.362;10.908;2023-02-18T01:24:23;12.10;66.00
2751;DHT22;1383;48.362;10.908;2023-02-18T01:26:50;12.20;65.70
2751;DHT22;1383;48.362;10.908;2023-02-18T01:29:17;12.10;65.80
2751;DHT22;1383;48.362;10.908;2023-02-18T01:31:44;12.20;65.90
2751;DHT22;1383;48.362;10.908;2023-02-18T01:34:10;12.20;65.80
2751;DHT22;1383;48.362;10.908;2023-02-18T01:36:37;12.10;66.20
2751;DHT22;1383;48.362;10.908;2023-02-18T01:39:05;12.10;66.40
2751;DHT22;1383;48.362;10.908;2023-02-18T01:41:32;12.00;67.00
2751;DHT22;1383;48.362;10.908;2023-02-18T01:44:29;12.10;67.00
2751;DHT22;1383;48.362;10.908;2023-02-18T01:46:56;12.10;66.80
2751;DHT22;1383;48.362;10.908;2023-02-18T01:49:34;12.10;66.70
2751;DHT22;1383;48.362;10.908;2023-02-18T01:52:06;12.10;66.70
2751;DHT22;1383;48.362;10.908;2023-02-18T01:54:38;12.10;66.70
2751;DHT22;1383;48.362;10.908;2023-02-18T01:57:40;12.10;66.90
2751;DHT22;1383;48.362;10.908;2023-02-18T02:00:12;12.10;66.60
2751;DHT22;1383;48.362;10.908;2023-02-18T02:02:43;12.10;66.20
2751;DHT22;1383;48.362;10.908;2023-02-18T02:05:11;12.10;66.40
2751;DHT22;1383;48.362;10.908;2023-02-18T02:07:40;12.00;66.40
2751;DHT22;1383;48.362;10.908;2023-02-18T02:10:10;12.10;66.50
2751;DHT22;1383;48.362;10.908;2023-02-18T02:12:44;12.10;66.10
2751;DHT22;1383;48.362;10.908;2023-02-18T02:18:44;12.10;65.80
2751;DHT22;1383;48.362;10.908;2023-02-18T02:35:21;11.90;66.30
2751;DHT22;1383;48.362;10.908;2023-02-18T02:43:25;12.00;66.10
2751;DHT22;1383;48.362;10.908;2023-02-18T02:48:50;12.00;65.40
2751;DHT22;1383;48.362;10.908;2023-02-18T02:51:37;12.00;65.20
2751;DHT22;1383;48.362;10.908;2023-02-18T02:54:17;12.00;65.10
2751;DHT22;1383;48.362;10.908;2023-02-18T02:56:44;12.00;65.00
2751;DHT22;1383;48.362;10.908;2023-02-18T02:59:15;12.00;64.60
2751;DHT22;1383;48.362;10.908;2023-02-18T03:15:56;11.90;64.20
2751;DHT22;1383;48.362;10.908;2023-02-18T03:18:42;11.90;63.50
2751;DHT22;1383;48.362;10.908;2023-02-18T03:21:18;11.90;63.60
2751;DHT22;1383;48.362;10.908;2023-02-18T03:23:56;11.80;63.40
2751;DHT22;1383;48.362;10.908;2023-02-18T03:26:26;11.80;63.40
2751;DHT22;1383;48.362;10.908;2023-02-18T03:28:59;11.80;63.10
2751;DHT22;1383;48.362;10.908;2023-02-18T03:31:28;11.80;62.80
2751;DHT22;1383;48.362;10.908;2023-02-18T03:34:08;11.70;62.80
2751;DHT22;1383;48.362;10.908;2023-02-18T03:36:37;11.70;62.30
2751;DHT22;1383;48.362;10.908;2023-02-18T03:39:51;11.80;62.30
2751;DHT22;1383;48.362;10.908;2023-02-18T03:41:57;11.80;62.50
2751;DHT22;1383;48.362;10.908;2023-02-18T03:44:24;11.80;63.00
2751;DHT22;1383;48.362;10.908;2023-02-18T03:46:52;11.80;63.20
2751;DHT22;1383;48.362;10.908;2023-02-18T03:49:18;11.80;63.70
2751;DHT22;1383;48.362;10.908;2023-02-18T03:51:45;11.80;64.10
2751;DHT22;1383;48.362;10.908;2023-02-18T03:54:13;11.80;64.00
2751;DHT22;1383;48.362;10.908;2023-02-18T03:56:40;11.80;63.90
2751;DHT22;1383;48.362;10.908;2023-02-18T03:59:08;11.90;64.30
2751;DHT22;1383;48.362;10.908;2023-02-18T04:01:35;11.90;64.50
2751;DHT22;1383;48.362;10.908;2023-02-18T04:04:02;11.80;64.40
2751;DHT22;1383;48.362;10.908;2023-02-18T04:06:29;11.80;64.20
2751;DHT22;1383;48.362;10.908;2023-02-18T04:08:56;11.80;63.80
2751;DHT22;1383;48.362;10.908;2023-02-18T04:11:23;11.80;63.60
2751;DHT22;1383;48.362;10.908;2023-02-18T04:13:49;11.80;63.40
2751;DHT22;1383;48.362;10.908;2023-02-18T04:16:16;11.90;63.60
2751;DHT22;1383;48.362;10.908;2023-02-18T04:18:43;11.90;63.60
2751;DHT22;1383;48.362;10.908;2023-02-18T04:21:10;11.90;63.60
2751;DHT22;1383;48.362;10.908;2023-02-18T04:23:37;11.90;63.60
2751;DHT22;1383;48.362;10.908;2023-02-18T04:26:03;11.90;63.90
2751;DHT22;1383;48.362;10.908;2023-02-18T04:28:30;11.90;63.90
2751;DHT22;1383;48.362;10.908;2023-02-18T04:30:57;11.90;63.80
2751;DHT22;1383;48.362;10.908;2023-02-18T04:33:24;11.80;63.80
2751;DHT22;1383;48.362;10.908;2023-02-18T04:35:51;11.80;64.00
2751;DHT22;1383;48.362;10.908;2023-02-18T04:38:17;11.90;64.00
2751;DHT22;1383;48.362;10.908;2023-02-18T04:40:47;11.90;63.80
2751;DHT22;1383;48.362;10.908;2023-02-18T04:43:14;11.90;64.10
2751;DHT22;1383;48.362;10.908;2023-02-18T04:45:41;11.80;64.50
2751;DHT22;1383;48.362;10.908;2023-02-18T04:48:07;11.80;64.60
2751;DHT22;1383;48.362;10.908;2023-02-18T04:50:34;11.80;64.40
2751;DHT22;1383;48.362;10.908;2023-02-18T04:53:01;11.80;64.40
2751;DHT22;1383;48.362;10.908;2023-02-18T04:55:28;11.80;63.90
2751;DHT22;1383;48.362;10.908;2023-02-18T04:57:55;11.80;64.10
2751;DHT22;1383;48.362;10.908;2023-02-18T05:00:22;11.80;64.00
2751;DHT22;1383;48.362;10.908;2023-02-18T05:02:48;11.80;63.90
2751;DHT22;1383;48.362;10.908;2023-02-18T05:05:15;11.80;63.60
2751;DHT22;1383;48.362;10.908;2023-02-18T05:07:42;11.80;63.50
2751;DHT22;1383;48.362;10.908;2023-02-18T05:10:10;11.80;63.10
2751;DHT22;1383;48.362;10.908;2023-02-18T05:12:40;11.70;63.10
2751;DHT22;1383;48.362;10.908;2023-02-18T05:15:07;11.70;63.00
2751;DHT22;1383;48.362;10.908;2023-02-18T05:17:34;11.70;63.70
2751;DHT22;1383;48.362;10.908;2023-02-18T05:20:01;11.70;63.80
2751;DHT22;1383;48.362;10.908;2023-02-18T05:22:27;11.70;64.20
2751;DHT22;1383;48.362;10.908;2023-02-18T05:24:54;11.60;63.90
2751;DHT22;1383;48.362;10.908;2023-02-18T05:27:21;11.70;64.00
2751;DHT22;1383;48.362;10.908;2023-02-18T05:29:48;11.70;63.40
2751;DHT22;1383;48.362;10.908;2023-02-18T05:32:15;11.70;63.30
2751;DHT22;1383;48.362;10.908;2023-02-18T05:34:41;11.70;63.20
2751;DHT22;1383;48.362;10.908;2023-02-18T05:37:08;11.80;62.40
2751;DHT22;1383;48.362;10.908;2023-02-18T05:39:35;11.80;62.50
2751;DHT22;1383;48.362;10.908;2023-02-18T05:42:02;11.80;62.80
2751;DHT22;1383;48.362;10.908;2023-02-18T05:44:29;11.70;62.10
2751;DHT22;1383;48.362;10.908;2023-02-18T05:47:08;11.70;61.50
2751;DHT22;1383;48.362;10.908;2023-02-18T05:49:38;11.70;61.80
2751;DHT22;1383;48.362;10.908;2023-02-18T05:52:04;11.70;62.20
2751;DHT22;1383;48.362;10.908;2023-02-18T05:54:32;11.70;62.20
2751;DHT22;1383;48.362;10.908;2023-02-18T05:56:58;11.80;62.30
2751;DHT22;1383;48.362;10.908;2023-02-18T05:59:25;11.80;62.20
2751;DHT22;1383;48.362;10.908;2023-02-18T06:01:53;11.70;62.20
2751;DHT22;1383;48.362;10.908;2023-02-18T06:04:20;11.70;62.80
2751;DHT22;1383;48.362;10.908;2023-02-18T06:06:46;11.70;63.30
2751;DHT22;1383;48.362;10.908;2023-02-18T06:09:13;11.70;63.70
2751;DHT22;1383;48.362;10.908;2023-02-18T06:11:40;11.70;64.00
2751;DHT22;1383;48.362;10.908;2023-02-18T06:14:07;11.60;64.50
2751;DHT22;1383;48.362;10.908;2023-02-18T06:16:34;11.60;64.60
2751;DHT22;1383;48.362;10.908;2023-02-18T06:19:01;11.60;65.00
2751;DHT22;1383;48.362;10.908;2023-02-18T06:21:27;11.60;64.90
2751;DHT22;1383;48.362;10.908;2023-02-18T06:23:54;11.50;65.50
2751;DHT22;1383;48.362;10.908;2023-02-18T06:26:21;11.50;66.40
2751;DHT22;1383;48.362;10.908;2023-02-18T06:28:48;11.40;66.50
2751;DHT22;1383;48.362;10.908;2023-02-18T06:31:15;11.40;66.70
2751;DHT22;1383;48.362;10.908;2023-02-18T06:33:42;11.40;67.20
2751;DHT22;1383;48.362;10.908;2023-02-18T06:36:10;11.40;67.40
2751;DHT22;1383;48.362;10.908;2023-02-18T06:38:42;11.40;67.10
2751;DHT22;1383;48.362;10.908;2023-02-18T06:41:11;11.40;67.40
2751;DHT22;1383;48.362;10.908;2023-02-18T06:43:38;11.40;67.30
2751;DHT22;1383;48.362;10.908;2023-02-18T06:46:05;11.40;66.90
2751;DHT22;1383;48.362;10.908;2023-02-18T06:48:33;11.40;67.10
2751;DHT22;1383;48.362;10.908;2023-02-18T06:51:00;11.40;66.50
2751;DHT22;1383;48.362;10.908;2023-02-18T06:53:26;11.40;66.60
2751;DHT22;1383;48.362;10.908;2023-02-18T06:55:53;11.40;66.50
2751;DHT22;1383;48.362;10.908;2023-02-18T06:58:20;11.50;66.40
2751;DHT22;1383;48.362;10.908;2023-02-18T07:00:48;11.60;66.00
2751;DHT22;1383;48.362;10.908;2023-02-18T07:03:15;11.60;65.30
2751;DHT22;1383;48.362;10.908;2023-02-18T07:05:42;11.60;65.40
2751;DHT22;1383;48.362;10.908;2023-02-18T07:08:09;11.60;64.90
2751;DHT22;1383;48.362;10.908;2023-02-18T07:10:36;11.60;64.50
2751;DHT22;1383;48.362;10.908;2023-02-18T07:13:04;11.60;64.60
2751;DHT22;1383;48.362;10.908;2023-02-18T07:15:31;11.60;64.60
2751;DHT22;1383;48.362;10.908;2023-02-18T07:17:58;11.70;64.10
2751;DHT22;1383;48.362;10.908;2023-02-18T07:20:25;11.70;64.30
2751;DHT22;1383;48.362;10.908;2023-02-18T07:22:53;11.70;64.00
2751;DHT22;1383;48.362;10.908;2023-02-18T07:25:20;11.70;64.00
2751;DHT22;1383;48.362;10.908;2023-02-18T07:27:49;11.70;63.50
2751;DHT22;1383;48.362;10.908;2023-02-18T07:30:18;11.80;63.20
2751;DHT22;1383;48.362;10.908;2023-02-18T07:32:45;11.80;62.70
2751;DHT22;1383;48.362;10.908;2023-02-18T07:35:13;11.90;63.00
2751;DHT22;1383;48.362;10.908;2023-02-18T07:37:47;11.80;62.30
2751;DHT22;1383;48.362;10.908;2023-02-18T07:40:17;11.80;62.30
2751;DHT22;1383;48.362;10.908;2023-02-18T07:42:44;11.90;62.20
2751;DHT22;1383;48.362;10.908;2023-02-18T07:45:12;11.90;61.90
2751;DHT22;1383;48.362;10.908;2023-02-18T07:47:39;11.90;61.60
2751;DHT22;1383;48.362;10.908;2023-02-18T07:50:08;11.90;60.90
2751;DHT22;1383;48.362;10.908;2023-02-18T07:52:35;11.90;61.00
2751;DHT22;1383;48.362;10.908;2023-02-18T07:55:02;12.00;61.10
2751;DHT22;1383;48.362;10.908;2023-02-18T07:57:29;12.00;60.80
2751;DHT22;1383;48.362;10.908;2023-02-18T07:59:56;12.00;60.70
2751;DHT22;1383;48.362;10.908;2023-02-18T08:02:23;12.10;60.40
2751;DHT22;1383;48.362;10.908;2023-02-18T08:04:50;12.10;60.20
2751;DHT22;1383;48.362;10.908;2023-02-18T08:07:19;12.20;59.80
2751;DHT22;1383;48.362;10.908;2023-02-18T08:09:47;12.30;59.30
2751;DHT22;1383;48.362;10.908;2023-02-18T08:12:16;12.30;58.80
2751;DHT22;1383;48.362;10.908;2023-02-18T08:14:43;12.30;58.90
2751;DHT22;1383;48.362;10.908;2023-02-18T08:17:09;12.30;59.00
2751;DHT22;1383;48.362;10.908;2023-02-18T08:19:36;12.40;58.50
2751;DHT22;1383;48.362;10.908;2023-02-18T08:22:03;12.40;58.20
2751;DHT22;1383;48.362;10.908;2023-02-18T08:24:30;12.50;57.60
2751;DHT22;1383;48.362;10.908;2023-02-18T08:26:56;12.40;57.40
2751;DHT22;1383;48.362;10.908;2023-02-18T08:29:27;12.40;57.70
2751;DHT22;1383;48.362;10.908;2023-02-18T08:31:54;12.40;57.20
2751;DHT22;1383;48.362;10.908;2023-02-18T08:34:23;12.50;57.20
2751;DHT22;1383;48.362;10.908;2023-02-18T08:36:49;12.60;57.10
2751;DHT22;1383;48.362;10.908;2023-02-18T08:39:17;12.60;56.40
2751;DHT22;1383;48.362;10.908;2023-02-18T08:41:44;12.60;55.90
2751;DHT22;1383;48.362;10.908;2023-02-18T08:44:11;12.70;55.80
2751;DHT22;1383;48.362;10.908;2023-02-18T08:46:38;12.60;55.70
2751;DHT22;1383;48.362;10.908;2023-02-18T08:49:05;12.60;55.70
2751;DHT22;1383;48.362;10.908;2023-02-18T08:51:32;12.70;55.50
2751;DHT22;1383;48.362;10.908;2023-02-18T08:53:59;12.70;55.10
2751;DHT22;1383;48.362;10.908;2023-02-18T08:56:26;12.80;54.90
2751;DHT22;1383;48.362;10.908;2023-02-18T08:58:53;12.90;54.60
2751;DHT22;1383;48.362;10.908;2023-02-18T09:01:20;12.90;54.50
2751;DHT22;1383;48.362;10.908;2023-02-18T09:03:47;12.80;54.30
2751;DHT22;1383;48.362;10.908;2023-02-18T09:06:14;12.90;54.00
2751;DHT22;1383;48.362;10.908;2023-02-18T09:08:41;12.90;54.20
2751;DHT22;1383;48.362;10.908;2023-02-18T09:11:10;12.80;54.00
2751;DHT22;1383;48.362;10.908;2023-02-18T09:13:37;12.80;53.90
2751;DHT22;1383;48.362;10.908;2023-02-18T09:16:11;12.90;54.00
2751;DHT22;1383;48.362;10.908;2023-02-18T09:18:38;13.10;53.50
2751;DHT22;1383;48.362;10.908;2023-02-18T09:21:07;13.10;52.80
2751;DHT22;1383;48.362;10.908;2023-02-18T09:23:35;13.30;52.50
2751;DHT22;1383;48.362;10.908;2023-02-18T09:26:08;13.30;51.60
2751;DHT22;1383;48.362;10.908;2023-02-18T09:28:36;13.30;51.80
2751;DHT22;1383;48.362;10.908;2023-02-18T09:31:05;13.30;51.30
2751;DHT22;1383;48.362;10.908;2023-02-18T09:33:37;13.40;51.20
2751;DHT22;1383;48.362;10.908;2023-02-18T09:36:05;13.40;50.80
2751;DHT22;1383;48.362;10.908;2023-02-18T09:38:32;13.50;50.90
2751;DHT22;1383;48.362;10.908;2023-02-18T09:41:00;13.70;50.60
2751;DHT22;1383;48.362;10.908;2023-02-18T09:43:39;13.80;50.50
2751;DHT22;1383;48.362;10.908;2023-02-18T09:46:19;13.80;49.40
2751;DHT22;1383;48.362;10.908;2023-02-18T09:48:47;13.90;48.90
2751;DHT22;1383;48.362;10.908;2023-02-18T09:51:15;14.00;48.70
2751;DHT22;1383;48.362;10.908;2023-02-18T09:53:43;14.10;48.20
2751;DHT22;1383;48.362;10.908;2023-02-18T09:56:15;14.20;47.30
2751;DHT22;1383;48.362;10.908;2023-02-18T09:58:44;14.20;47.10
2751;DHT22;1383;48.362;10.908;2023-02-18T10:01:26;14.30;46.70
2751;DHT22;1383;48.362;10.908;2023-02-18T10:03:57;14.30;46.30
2751;DHT22;1383;48.362;10.908;2023-02-18T10:06:30;14.30;46.50
2751;DHT22;1383;48.362;10.908;2023-02-18T10:09:01;14.30;46.00
2751;DHT22;1383;48.362;10.908;2023-02-18T10:11:40;14.20;46.40
2751;DHT22;1383;48.362;10.908;2023-02-18T10:14:12;14.20;46.40
2751;DHT22;1383;48.362;10.908;2023-02-18T10:16:41;14.30;46.30
2751;DHT22;1383;48.362;10.908;2023-02-18T10:19:21;14.30;46.30
2751;DHT22;1383;48.362;10.908;2023-02-18T10:21:49;14.30;46.30
2751;DHT22;1383;48.362;10.908;2023-02-18T10:24:30;14.30;45.70
2751;DHT22;1383;48.362;10.908;2023-02-18T10:26:58;14.30;46.00
2751;DHT22;1383;48.362;10.908;2023-02-18T10:29:26;14.30;46.10
2751;DHT22;1383;48.362;10.908;2023-02-18T10:32:06;14.40;46.00
2751;DHT22;1383;48.362;10.908;2023-02-18T10:34:41;14.40;45.90
2751;DHT22;1383;48.362;10.908;2023-02-18T10:40:37;14.70;45.50
2751;DHT22;1383;48.362;10.908;2023-02-18T10:43:20;14.80;44.70
2751;DHT22;1383;48.362;10.908;2023-02-18T10:49:07;14.80;44.40
2751;DHT22;1383;48.362;10.908;2023-02-18T10:51:36;14.90;44.10
2751;DHT22;1383;48.362;10.908;2023-02-18T10:54:06;15.10;44.40
2751;DHT22;1383;48.362;10.908;2023-02-18T10:56:38;15.00;43.90
2751;DHT22;1383;48.362;10.908;2023-02-18T10:59:31;14.70;44.40
2751;DHT22;1383;48.362;10.908;2023-02-18T11:02:09;14.80;44.90
2751;DHT22;1383;48.362;10.908;2023-02-18T11:04:43;14.70;44.80
2751;DHT22;1383;48.362;10.908;2023-02-18T11:07:19;14.80;44.70
2751;DHT22;1383;48.362;10.908;2023-02-18T11:09:47;14.90;44.00
2751;DHT22;1383;48.362;10.908;2023-02-18T11:12:48;15.00;44.00
2751;DHT22;1383;48.362;10.908;2023-02-18T11:15:22;15.10;43.70
2751;DHT22;1383;48.362;10.908;2023-02-18T11:17:52;15.20;43.20
2751;DHT22;1383;48.362;10.908;2023-02-18T11:22:50;15.30;42.70
2751;DHT22;1383;48.362;10.908;2023-02-18T11:25:29;15.20;42.60
2751;DHT22;1383;48.362;10.908;2023-02-18T11:28:06;15.00;42.60
2751;DHT22;1383;48.362;10.908;2023-02-18T11:30:53;15.00;43.00
2751;DHT22;1383;48.362;10.908;2023-02-18T11:35:52;14.90;43.10
2751;DHT22;1383;48.362;10.908;2023-02-18T11:38:41;15.00;43.00
2751;DHT22;1383;48.362;10.908;2023-02-18T11:41:17;15.10;42.80
2751;DHT22;1383;48.362;10.908;2023-02-18T11:43:48;15.10;42.10
2751;DHT22;1383;48.362;10.908;2023-02-18T11:46:22;14.90;42.30
2751;DHT22;1383;48.362;10.908;2023-02-18T11:48:50;14.90;42.70
2751;DHT22;1383;48.362;10.908;2023-02-18T11:51:32;14.80;42.70
2751;DHT22;1383;48.362;10.908;2023-02-18T11:54:07;14.80;43.20
2751;DHT22;1383;48.362;10.908;2023-02-18T11:57:01;14.80;43.20
2751;DHT22;1383;48.362;10.908;2023-02-18T11:59:34;14.80;43.00
2751;DHT22;1383;48.362;10.908;2023-02-18T12:04:42;14.70;43.00
2751;DHT22;1383;48.362;10.908;2023-02-18T12:07:14;14.70;42.80
2751;DHT22;1383;48.362;10.908;2023-02-18T12:09:55;14.70;42.70
2751;DHT22;1383;48.362;10.908;2023-02-18T12:13:18;14.70;43.00
2751;DHT22;1383;48.362;10.908;2023-02-18T12:21:34;14.90;42.90
2751;DHT22;1383;48.362;10.908;2023-02-18T12:26:54;15.00;42.40
2751;DHT22;1383;48.362;10.908;2023-02-18T12:32:20;15.10;41.80
2751;DHT22;1383;48.362;10.908;2023-02-18T12:38:02;15.10;41.80
2751;DHT22;1383;48.362;10.908;2023-02-18T12:43:38;15.30;40.10
2751;DHT22;1383;48.362;10.908;2023-02-18T12:46:54;15.30;40.60
2751;DHT22;1383;48.362;10.908;2023-02-18T12:55:14;15.20;40.50
2751;DHT22;1383;48.362;10.908;2023-02-18T13:00:48;15.00;41.20
2751;DHT22;1383;48.362;10.908;2023-02-18T13:06:41;14.90;41.50
2751;DHT22;1383;48.362;10.908;2023-02-18T13:12:08;14.90;41.90
2751;DHT22;1383;48.362;10.908;2023-02-18T13:14:59;14.90;42.10
2751;DHT22;1383;48.362;10.908;2023-02-18T13:17:31;15.00;42.10
2751;DHT22;1383;48.362;10.908;2023-02-18T13:23:03;14.90;42.20
2751;DHT22;1383;48.362;10.908;2023-02-18T13:25:37;14.80;42.70
2751;DHT22;1383;48.362;10.908;2023-02-18T13:28:20;14.70;42.70
2751;DHT22;1383;48.362;10.908;2023-02-18T13:41:19;14.60;43.20
2751;DHT22;1383;48.362;10.908;2023-02-18T13:43:46;14.60;43.20
2751;DHT22;1383;48.362;10.908;2023-02-18T13:48:52;14.80;42.80
2751;DHT22;1383;48.362;10.908;2023-02-18T13:54:45;14.80;42.80
2751;DHT22;1383;48.362;10.908;2023-02-18T13:57:04;14.70;42.70
2751;DHT22;1383;48.362;10.908;2023-02-18T13:59:42;14.70;42.70
2751;DHT22;1383;48.362;10.908;2023-02-18T14:07:24;14.70;41.50
2751;DHT22;1383;48.362;10.908;2023-02-18T14:09:54;14.80;41.60
2751;DHT22;1383;48.362;10.908;2023-02-18T14:18:09;14.70;41.80
2751;DHT22;1383;48.362;10.908;2023-02-18T14:49:53;14.50;43.10
2751;DHT22;1383;48.362;10.908;2023-02-18T14:54:47;14.50;43.30
2751;DHT22;1383;48.362;10.908;2023-02-18T14:57:16;14.50;43.50
2751;DHT22;1383;48.362;10.908;2023-02-18T14:59:44;14.50;43.50
2751;DHT22;1383;48.362;10.908;2023-02-18T15:02:21;14.50;43.60
2751;DHT22;1383;48.362;10.908;2023-02-18T15:04:48;14.50;43.50
2751;DHT22;1383;48.362;10.908;2023-02-18T15:07:19;14.50;44.30
2751;DHT22;1383;48.362;10.908;2023-02-18T15:09:49;14.50;43.60
2751;DHT22;1383;48.362;10.908;2023-02-18T15:12:20;14.40;44.00
2751;DHT22;1383;48.362;10.908;2023-02-18T15:14:52;14.30;44.20
2751;DHT22;1383;48.362;10.908;2023-02-18T15:17:23;14.30;44.40
2751;DHT22;1383;48.362;10.908;2023-02-18T15:19:57;14.20;44.90
2751;DHT22;1383;48.362;10.908;2023-02-18T15:22:28;14.30;44.80
2751;DHT22;1383;48.362;10.908;2023-02-18T15:24:57;14.20;44.80
2751;DHT22;1383;48.362;10.908;2023-02-18T15:27:32;14.20;45.10
2751;DHT22;1383;48.362;10.908;2023-02-18T15:32:57;14.10;44.90
2751;DHT22;1383;48.362;10.908;2023-02-18T15:35:31;14.20;45.00
2751;DHT22;1383;48.362;10.908;2023-02-18T15:37:59;14.10;45.00
2751;DHT22;1383;48.362;10.908;2023-02-18T15:40:30;14.20;45.20
2751;DHT22;1383;48.362;10.908;2023-02-18T15:43:03;14.10;45.20
2751;DHT22;1383;48.362;10.908;2023-02-18T15:45:41;14.20;45.50
2751;DHT22;1383;48.362;10.908;2023-02-18T15:48:30;14.20;45.40
2751;DHT22;1383;48.362;10.908;2023-02-18T15:51:09;14.20;45.10
2751;DHT22;1383;48.362;10.908;2023-02-18T15:53:45;14.20;45.10
2751;DHT22;1383;48.362;10.908;2023-02-18T15:56:20;14.10;45.00
2751;DHT22;1383;48.362;10.908;2023-02-18T15:58:49;14.00;45.30
2751;DHT22;1383;48.362;10.908;2023-02-18T16:01:27;14.10;45.20
2751;DHT22;1383;48.362;10.908;2023-02-18T16:03:55;14.00;45.00
2751;DHT22;1383;48.362;10.908;2023-02-18T16:06:27;14.00;44.90
2751;DHT22;1383;48.362;10.908;2023-02-18T16:11:27;14.00;45.00
2751;DHT22;1383;48.362;10.908;2023-02-18T16:13:55;14.00;44.80
2751;DHT22;1383;48.362;10.908;2023-02-18T16:16:23;13.90;44.90
2751;DHT22;1383;48.362;10.908;2023-02-18T16:18:51;13.90;45.20
2751;DHT22;1383;48.362;10.908;2023-02-18T16:23:54;13.90;45.70
2751;DHT22;1383;48.362;10.908;2023-02-18T16:29:11;13.70;45.40
2751;DHT22;1383;48.362;10.908;2023-02-18T16:31:40;13.70;45.40
2751;DHT22;1383;48.362;10.908;2023-02-18T16:34:07;13.60;45.30
2751;DHT22;1383;48.362;10.908;2023-02-18T16:36:34;13.60;45.80
2751;DHT22;1383;48.362;10.908;2023-02-18T16:39:01;13.60;45.10
2751;DHT22;1383;48.362;10.908;2023-02-18T16:41:28;13.50;45.10
2751;DHT22;1383;48.362;10.908;2023-02-18T16:43:56;13.50;45.40
2751;DHT22;1383;48.362;10.908;2023-02-18T16:46:23;13.40;45.20
2751;DHT22;1383;48.362;10.908;2023-02-18T16:48:54;13.40;45.20
2751;DHT22;1383;48.362;10.908;2023-02-18T16:51:31;13.30;45.10
2751;DHT22;1383;48.362;10.908;2023-02-18T16:54:00;13.30;45.10
2751;DHT22;1383;48.362;10.908;2023-02-18T16:56:31;13.30;45.20
2751;DHT22;1383;48.362;10.908;2023-02-18T16:58:59;13.30;45.30
2751;DHT22;1383;48.362;10.908;2023-02-18T17:01:35;13.30;45.20
2751;DHT22;1383;48.362;10.908;2023-02-18T17:04:04;13.30;45.20
2751;DHT22;1383;48.362;10.908;2023-02-18T17:06:32;13.30;45.30
2751;DHT22;1383;48.362;10.908;2023-02-18T17:08:59;13.30;45.40
2751;DHT22;1383;48.362;10.908;2023-02-18T17:11:31;13.20;45.50
2751;DHT22;1383;48.362;10.908;2023-02-18T17:13:59;13.20;45.50
2751;DHT22;1383;48.362;10.908;2023-02-18T17:16:27;13.20;45.80
2751;DHT22;1383;48.362;10.908;2023-02-18T17:18:54;13.20;45.70
2751;DHT22;1383;48.362;10.908;2023-02-18T17:21:23;13.10;45.70
2751;DHT22;1383;48.362;10.908;2023-02-18T17:23:50;13.10;45.50
2751;DHT22;1383;48.362;10.908;2023-02-18T17:26:22;13.00;45.80
2751;DHT22;1383;48.362;10.908;2023-02-18T17:28:51;13.00;45.80
2751;DHT22;1383;48.362;10.908;2023-02-18T17:31:25;13.00;45.80
2751;DHT22;1383;48.362;10.908;2023-02-18T17:33:53;12.90;45.70
2751;DHT22;1383;48.362;10.908;2023-02-18T17:36:21;12.90;45.60
2751;DHT22;1383;48.362;10.908;2023-02-18T17:38:48;12.90;45.70
2751;DHT22;1383;48.362;10.908;2023-02-18T17:41:17;12.80;45.60
2751;DHT22;1383;48.362;10.908;2023-02-18T17:43:44;12.90;45.70
2751;DHT22;1383;48.362;10.908;2023-02-18T17:46:13;12.80;45.60
2751;DHT22;1383;48.362;10.908;2023-02-18T17:48:41;12.80;45.60
2751;DHT22;1383;48.362;10.908;2023-02-18T17:53:44;12.70;45.90
2751;DHT22;1383;48.362;10.908;2023-02-18T17:56:11;12.70;46.20
2751;DHT22;1383;48.362;10.908;2023-02-18T17:58:38;12.70;46.20
2751;DHT22;1383;48.362;10.908;2023-02-18T18:01:05;12.70;46.20
2751;DHT22;1383;48.362;10.908;2023-02-18T18:03:32;12.70;46.20
2751;DHT22;1383;48.362;10.908;2023-02-18T18:05:59;12.60;46.20
2751;DHT22;1383;48.362;10.908;2023-02-18T18:08:26;12.60;46.40
2751;DHT22;1383;48.362;10.908;2023-02-18T18:10:54;12.60;46.40
2751;DHT22;1383;48.362;10.908;2023-02-18T18:13:29;12.60;46.50
2751;DHT22;1383;48.362;10.908;2023-02-18T18:15:58;12.60;46.60
2751;DHT22;1383;48.362;10.908;2023-02-18T18:18:26;12.60;46.80
2751;DHT22;1383;48.362;10.908;2023-02-18T18:20:59;12.60;46.80
2751;DHT22;1383;48.362;10.908;2023-02-18T18:23:26;12.60;47.00
2751;DHT22;1383;48.362;10.908;2023-02-18T18:25:56;12.60;47.10
2751;DHT22;1383;48.362;10.908;2023-02-18T18:28:24;12.60;47.20
2751;DHT22;1383;48.362;10.908;2023-02-18T18:30:54;12.60;47.40
2751;DHT22;1383;48.362;10.908;2023-02-18T18:33:26;12.50;47.60
2751;DHT22;1383;48.362;10.908;2023-02-18T18:35:54;12.50;47.80
2751;DHT22;1383;48.362;10.908;2023-02-18T18:38:23;12.60;47.90
2751;DHT22;1383;48.362;10.908;2023-02-18T18:40:51;12.60;47.90
2751;DHT22;1383;48.362;10.908;2023-02-18T18:43:21;12.60;48.50
2751;DHT22;1383;48.362;10.908;2023-02-18T18:45:49;12.60;47.60